sensor_id;sensor_type;location;lat;lon;timestamp;P1;durP1;ratioP1;P2;durP2;ratioP2
9208;SDS011;4639;48.862;9.188;2022-09-27T00:02:07;1.08;;;1.00;;
9208;SDS011;4639;48.862;9.188;2022-09-27T00:04:33;1.30;;;1.15;;
9208;SDS011;4639;48.862;9.188;2022-09-27T00:06:59;1.95;;;1.48;;
9208;SDS011;4639;48.862;9.188;2022-09-27T00:09:24;2.35;;;1.00;;
9208;SDS011;4639;48.862;9.188;2022-09-27T00:11:50;1.88;;;0.90;;
9208;SDS011;4639;48.862;9.188;2022-09-27T00:14:16;1.30;;;1.20;;
9208;SDS011;4639;48.862;9.188;2022-09-27T00:16:41;1.33;;;1.10;;
9208;SDS011;4639;48.862;9.188;2022-09-27T00:19:13;1.10;;;1.00;;
9208;SDS011;4639;48.862;9.188;2022-09-27T00:21:42;1.60;;;0.95;;
9208;SDS011;4639;48.862;9.188;2022-09-27T00:24:10;3.35;;;1.02;;
9208;SDS011;4639;48.862;9.188;2022-09-27T00:26:41;1.70;;;1.10;;
9208;SDS011;4639;48.862;9.188;2022-09-27T00:29:08;1.70;;;0.98;;
9208;SDS011;4639;48.862;9.188;2022-09-27T00:31:34;1.00;;;0.90;;
9208;SDS011;4639;48.862;9.188;2022-09-27T00:34:01;3.03;;;1.10;;
9208;SDS011;4639;48.862;9.188;2022-09-27T00:36:29;1.35;;;0.98;;
9208;SDS011;4639;48.862;9.188;2022-09-27T00:38:56;1.58;;;1.00;;
9208;SDS011;4639;48.862;9.188;2022-09-27T00:41:25;2.30;;;0.90;;
9208;SDS011;4639;48.862;9.188;2022-09-27T00:43:52;0.93;;;0.88;;
9208;SDS011;4639;48.862;9.188;2022-09-27T00:46:30;0.80;;;0.80;;
9208;SDS011;4639;48.862;9.188;2022-09-27T00:49:22;1.13;;;0.80;;
9208;SDS011;4639;48.862;9.188;2022-09-27T00:51:58;1.23;;;0.80;;
9208;SDS011;4639;48.862;9.188;2022-09-27T00:54:47;2.25;;;1.00;;
9208;SDS011;4639;48.862;9.188;2022-09-27T00:57:17;4.32;;;1.20;;
9208;SDS011;4639;48.862;9.188;2022-09-27T00:59:45;1.13;;;1.02;;
9208;SDS011;4639;48.862;9.188;2022-09-27T01:02:17;0.88;;;0.88;;
9208;SDS011;4639;48.862;9.188;2022-09-27T01:04:43;1.00;;;1.00;;
9208;SDS011;4639;48.862;9.188;2022-09-27T01:07:11;0.90;;;0.80;;
9208;SDS011;4639;48.862;9.188;2022-09-27T01:09:37;1.33;;;1.00;;
9208;SDS011;4639;48.862;9.188;2022-09-27T01:12:10;1.45;;;1.02;;
9208;SDS011;4639;48.862;9.188;2022-09-27T01:15:30;1.30;;;0.90;;
9208;SDS011;4639;48.862;9.188;2022-09-27T01:17:51;1.02;;;0.90;;
9208;SDS011;4639;48.862;9.188;2022-09-27T01:29:11;1.00;;;0.90;;
9208;SDS011;4639;48.862;9.188;2022-09-27T01:31:44;1.65;;;0.90;;
9208;SDS011;4639;48.862;9.188;2022-09-27T01:40:23;0.93;;;0.75;;
9208;SDS011;4639;48.862;9.188;2022-09-27T01:43:02;1.15;;;0.70;;
9208;SDS011;4639;48.862;9.188;2022-09-27T01:45:37;2.38;;;0.85;;
9208;SDS011;4639;48.862;9.188;2022-09-27T01:48:36;0.70;;;0.70;;
9208;SDS011;4639;48.862;9.188;2022-09-27T01:51:08;0.93;;;0.90;;
9208;SDS011;4639;48.862;9.188;2022-09-27T01:53:49;1.08;;;0.73;;
9208;SDS011;4639;48.862;9.188;2022-09-27T01:56:23;0.93;;;0.70;;
9208;SDS011;4639;48.862;9.188;2022-09-27T02:01:38;1.15;;;0.90;;
9208;SDS011;4639;48.862;9.188;2022-09-27T02:04:09;2.70;;;1.17;;
9208;SDS011;4639;48.862;9.188;2022-09-27T02:06:40;2.35;;;1.05;;
9208;SDS011;4639;48.862;9.188;2022-09-27T02:09:13;2.65;;;0.90;;
9208;SDS011;4639;48.862;9.188;2022-09-27T02:11:44;1.17;;;1.08;;
9208;SDS011;4639;48.862;9.188;2022-09-27T02:14:18;1.35;;;0.73;;
9208;SDS011;4639;48.862;9.188;2022-09-27T02:16:48;1.10;;;0.90;;
9208;SDS011;4639;48.862;9.188;2022-09-27T02:24:58;1.15;;;0.98;;
9208;SDS011;4639;48.862;9.188;2022-09-27T02:30:18;0.77;;;0.77;;
9208;SDS011;4639;48.862;9.188;2022-09-27T02:32:44;2.10;;;0.70;;
9208;SDS011;4639;48.862;9.188;2022-09-27T02:38:08;1.38;;;0.88;;
9208;SDS011;4639;48.862;9.188;2022-09-27T02:40:35;1.15;;;0.63;;
9208;SDS011;4639;48.862;9.188;2022-09-27T02:43:10;1.98;;;1.00;;
9208;SDS011;4639;48.862;9.188;2022-09-27T02:51:40;1.27;;;0.85;;
9208;SDS011;4639;48.862;9.188;2022-09-27T03:05:04;1.70;;;1.08;;
9208;SDS011;4639;48.862;9.188;2022-09-27T03:07:33;1.80;;;1.00;;
9208;SDS011;4639;48.862;9.188;2022-09-27T03:10:00;4.43;;;1.20;;
9208;SDS011;4639;48.862;9.188;2022-09-27T03:12:25;1.70;;;1.17;;
9208;SDS011;4639;48.862;9.188;2022-09-27T03:14:55;2.22;;;1.17;;
9208;SDS011;4639;48.862;9.188;2022-09-27T03:17:22;2.15;;;1.25;;
9208;SDS011;4639;48.862;9.188;2022-09-27T03:19:48;4.75;;;1.30;;
9208;SDS011;4639;48.862;9.188;2022-09-27T03:22:14;3.20;;;1.17;;
9208;SDS011;4639;48.862;9.188;2022-09-27T03:24:40;4.78;;;1.90;;
9208;SDS011;4639;48.862;9.188;2022-09-27T03:27:06;4.20;;;1.50;;
9208;SDS011;4639;48.862;9.188;2022-09-27T03:29:32;5.78;;;1.98;;
9208;SDS011;4639;48.862;9.188;2022-09-27T03:31:58;3.28;;;1.23;;
9208;SDS011;4639;48.862;9.188;2022-09-27T03:34:23;2.40;;;1.17;;
9208;SDS011;4639;48.862;9.188;2022-09-27T03:36:49;5.38;;;1.48;;
9208;SDS011;4639;48.862;9.188;2022-09-27T03:39:15;4.95;;;1.92;;
9208;SDS011;4639;48.862;9.188;2022-09-27T03:41:40;3.70;;;1.75;;
9208;SDS011;4639;48.862;9.188;2022-09-27T03:44:06;2.63;;;1.40;;
9208;SDS011;4639;48.862;9.188;2022-09-27T03:46:32;2.83;;;1.52;;
9208;SDS011;4639;48.862;9.188;2022-09-27T03:48:58;5.88;;;2.13;;
9208;SDS011;4639;48.862;9.188;2022-09-27T03:51:24;4.50;;;2.10;;
9208;SDS011;4639;48.862;9.188;2022-09-27T03:53:49;4.10;;;1.88;;
9208;SDS011;4639;48.862;9.188;2022-09-27T03:56:15;6.05;;;2.33;;
9208;SDS011;4639;48.862;9.188;2022-09-27T03:58:41;4.40;;;1.92;;
9208;SDS011;4639;48.862;9.188;2022-09-27T04:01:06;7.72;;;2.28;;
9208;SDS011;4639;48.862;9.188;2022-09-27T04:03:32;5.28;;;1.95;;
9208;SDS011;4639;48.862;9.188;2022-09-27T04:06:00;7.35;;;2.45;;
9208;SDS011;4639;48.862;9.188;2022-09-27T04:08:26;6.40;;;2.15;;
9208;SDS011;4639;48.862;9.188;2022-09-27T04:10:51;4.57;;;2.22;;
9208;SDS011;4639;48.862;9.188;2022-09-27T04:13:17;5.25;;;2.05;;
9208;SDS011;4639;48.862;9.188;2022-09-27T04:15:43;6.07;;;2.35;;
9208;SDS011;4639;48.862;9.188;2022-09-27T04:18:09;8.05;;;2.42;;
9208;SDS011;4639;48.862;9.188;2022-09-27T04:20:35;7.82;;;2.53;;
9208;SDS011;4639;48.862;9.188;2022-09-27T04:23:00;4.97;;;1.90;;
9208;SDS011;4639;48.862;9.188;2022-09-27T04:25:26;6.30;;;2.22;;
9208;SDS011;4639;48.862;9.188;2022-09-27T04:27:53;6.70;;;2.00;;
9208;SDS011;4639;48.862;9.188;2022-09-27T04:30:19;6.90;;;2.33;;
9208;SDS011;4639;48.862;9.188;2022-09-27T04:32:46;6.40;;;2.15;;
9208;SDS011;4639;48.862;9.188;2022-09-27T04:35:12;5.43;;;2.17;;
9208;SDS011;4639;48.862;9.188;2022-09-27T04:37:57;6.43;;;2.45;;
9208;SDS011;4639;48.862;9.188;2022-09-27T04:40:23;6.53;;;2.38;;
9208;SDS011;4639;48.862;9.188;2022-09-27T04:42:49;8.57;;;2.20;;
9208;SDS011;4639;48.862;9.188;2022-09-27T04:45:16;7.43;;;1.90;;
9208;SDS011;4639;48.862;9.188;2022-09-27T04:47:43;5.85;;;2.28;;
9208;SDS011;4639;48.862;9.188;2022-09-27T04:50:10;6.05;;;2.40;;
9208;SDS011;4639;48.862;9.188;2022-09-27T04:52:36;7.40;;;2.20;;
9208;SDS011;4639;48.862;9.188;2022-09-27T04:55:02;4.57;;;2.10;;
9208;SDS011;4639;48.862;9.188;2022-09-27T04:57:28;5.60;;;2.30;;
9208;SDS011;4639;48.862;9.188;2022-09-27T04:59:54;4.22;;;1.85;;
9208;SDS011;4639;48.862;9.188;2022-09-27T05:02:20;7.57;;;2.47;;
9208;SDS011;4639;48.862;9.188;2022-09-27T05:04:45;6.65;;;1.90;;
9208;SDS011;4639;48.862;9.188;2022-09-27T05:07:11;6.28;;;2.08;;
9208;SDS011;4639;48.862;9.188;2022-09-27T05:09:37;5.10;;;2.00;;
9208;SDS011;4639;48.862;9.188;2022-09-27T05:12:02;6.28;;;1.90;;
9208;SDS011;4639;48.862;9.188;2022-09-27T05:14:31;6.65;;;1.92;;
9208;SDS011;4639;48.862;9.188;2022-09-27T05:16:57;4.53;;;1.77;;
9208;SDS011;4639;48.862;9.188;2022-09-27T05:19:22;2.35;;;1.35;;
9208;SDS011;4639;48.862;9.188;2022-09-27T05:21:48;4.82;;;1.83;;
9208;SDS011;4639;48.862;9.188;2022-09-27T05:24:14;3.42;;;1.60;;
9208;SDS011;4639;48.862;9.188;2022-09-27T05:26:40;4.57;;;1.83;;
9208;SDS011;4639;48.862;9.188;2022-09-27T05:29:06;3.95;;;1.92;;
9208;SDS011;4639;48.862;9.188;2022-09-27T05:31:32;1.75;;;1.30;;
9208;SDS011;4639;48.862;9.188;2022-09-27T05:33:58;6.75;;;1.67;;
9208;SDS011;4639;48.862;9.188;2022-09-27T05:36:23;3.65;;;1.35;;
9208;SDS011;4639;48.862;9.188;2022-09-27T05:38:49;4.45;;;1.60;;
9208;SDS011;4639;48.862;9.188;2022-09-27T05:41:14;2.50;;;1.17;;
9208;SDS011;4639;48.862;9.188;2022-09-27T05:43:41;3.22;;;1.25;;
9208;SDS011;4639;48.862;9.188;2022-09-27T05:46:07;5.72;;;1.65;;
9208;SDS011;4639;48.862;9.188;2022-09-27T05:48:32;3.28;;;1.42;;
9208;SDS011;4639;48.862;9.188;2022-09-27T05:50:58;2.78;;;1.23;;
9208;SDS011;4639;48.862;9.188;2022-09-27T05:53:23;2.05;;;1.10;;
9208;SDS011;4639;48.862;9.188;2022-09-27T05:55:49;2.22;;;1.20;;
9208;SDS011;4639;48.862;9.188;2022-09-27T05:58:15;1.48;;;1.33;;
9208;SDS011;4639;48.862;9.188;2022-09-27T06:00:41;2.28;;;1.17;;
9208;SDS011;4639;48.862;9.188;2022-09-27T06:03:07;2.33;;;1.40;;
9208;SDS011;4639;48.862;9.188;2022-09-27T06:05:37;2.42;;;1.40;;
9208;SDS011;4639;48.862;9.188;2022-09-27T06:08:07;2.58;;;1.27;;
9208;SDS011;4639;48.862;9.188;2022-09-27T06:10:34;3.55;;;1.55;;
9208;SDS011;4639;48.862;9.188;2022-09-27T06:13:01;3.80;;;1.77;;
9208;SDS011;4639;48.862;9.188;2022-09-27T06:15:31;2.95;;;1.65;;
9208;SDS011;4639;48.862;9.188;2022-09-27T06:18:02;3.90;;;1.38;;
9208;SDS011;4639;48.862;9.188;2022-09-27T06:20:30;2.67;;;1.38;;
9208;SDS011;4639;48.862;9.188;2022-09-27T06:23:03;3.05;;;1.52;;
9208;SDS011;4639;48.862;9.188;2022-09-27T06:25:33;2.53;;;1.48;;
9208;SDS011;4639;48.862;9.188;2022-09-27T06:27:59;2.28;;;1.30;;
9208;SDS011;4639;48.862;9.188;2022-09-27T06:30:26;3.50;;;1.50;;
9208;SDS011;4639;48.862;9.188;2022-09-27T06:33:01;3.30;;;1.60;;
9208;SDS011;4639;48.862;9.188;2022-09-27T06:35:27;1.15;;;1.05;;
9208;SDS011;4639;48.862;9.188;2022-09-27T06:37:55;2.40;;;1.30;;
9208;SDS011;4639;48.862;9.188;2022-09-27T06:40:21;3.15;;;1.65;;
9208;SDS011;4639;48.862;9.188;2022-09-27T06:42:50;1.77;;;1.30;;
9208;SDS011;4639;48.862;9.188;2022-09-27T06:45:15;2.40;;;1.10;;
9208;SDS011;4639;48.862;9.188;2022-09-27T06:47:41;6.55;;;1.35;;
9208;SDS011;4639;48.862;9.188;2022-09-27T06:50:07;2.90;;;1.30;;
9208;SDS011;4639;48.862;9.188;2022-09-27T06:52:33;1.25;;;0.90;;
9208;SDS011;4639;48.862;9.188;2022-09-27T06:54:59;1.15;;;0.90;;
9208;SDS011;4639;48.862;9.188;2022-09-27T06:57:25;1.08;;;0.85;;
9208;SDS011;4639;48.862;9.188;2022-09-27T07:00:10;2.42;;;1.15;;
9208;SDS011;4639;48.862;9.188;2022-09-27T07:02:48;2.10;;;0.75;;
9208;SDS011;4639;48.862;9.188;2022-09-27T07:05:14;0.40;;;0.40;;
9208;SDS011;4639;48.862;9.188;2022-09-27T07:07:41;1.77;;;1.05;;
9208;SDS011;4639;48.862;9.188;2022-09-27T07:10:08;1.17;;;0.68;;
9208;SDS011;4639;48.862;9.188;2022-09-27T07:12:35;1.10;;;1.00;;
9208;SDS011;4639;48.862;9.188;2022-09-27T07:15:00;0.90;;;0.90;;
9208;SDS011;4639;48.862;9.188;2022-09-27T07:17:26;1.42;;;1.10;;
9208;SDS011;4639;48.862;9.188;2022-09-27T07:19:52;0.70;;;0.70;;
9208;SDS011;4639;48.862;9.188;2022-09-27T07:22:18;0.70;;;0.70;;
9208;SDS011;4639;48.862;9.188;2022-09-27T07:24:44;1.42;;;0.88;;
9208;SDS011;4639;48.862;9.188;2022-09-27T07:27:10;0.93;;;0.70;;
9208;SDS011;4639;48.862;9.188;2022-09-27T07:29:35;0.82;;;0.82;;
9208;SDS011;4639;48.862;9.188;2022-09-27T07:32:01;1.15;;;0.63;;
9208;SDS011;4639;48.862;9.188;2022-09-27T07:34:28;1.92;;;0.80;;
9208;SDS011;4639;48.862;9.188;2022-09-27T07:37:02;1.75;;;1.13;;
9208;SDS011;4639;48.862;9.188;2022-09-27T07:39:29;2.55;;;0.77;;
9208;SDS011;4639;48.862;9.188;2022-09-27T07:41:56;4.78;;;1.00;;
9208;SDS011;4639;48.862;9.188;2022-09-27T07:44:21;2.88;;;0.90;;
9208;SDS011;4639;48.862;9.188;2022-09-27T07:46:47;1.15;;;0.82;;
9208;SDS011;4639;48.862;9.188;2022-09-27T07:49:13;3.00;;;1.10;;
9208;SDS011;4639;48.862;9.188;2022-09-27T07:51:38;1.65;;;0.80;;
9208;SDS011;4639;48.862;9.188;2022-09-27T07:54:04;2.60;;;0.90;;
9208;SDS011;4639;48.862;9.188;2022-09-27T07:56:30;1.13;;;0.93;;
9208;SDS011;4639;48.862;9.188;2022-09-27T07:58:57;3.10;;;1.27;;
9208;SDS011;4639;48.862;9.188;2022-09-27T08:01:23;2.15;;;1.23;;
9208;SDS011;4639;48.862;9.188;2022-09-27T08:03:48;1.10;;;0.90;;
9208;SDS011;4639;48.862;9.188;2022-09-27T08:06:14;1.55;;;1.08;;
9208;SDS011;4639;48.862;9.188;2022-09-27T08:08:40;1.48;;;1.10;;
9208;SDS011;4639;48.862;9.188;2022-09-27T08:11:12;1.58;;;1.27;;
9208;SDS011;4639;48.862;9.188;2022-09-27T08:13:43;2.35;;;1.00;;
9208;SDS011;4639;48.862;9.188;2022-09-27T08:16:09;3.85;;;1.45;;
9208;SDS011;4639;48.862;9.188;2022-09-27T08:18:36;2.50;;;1.42;;
9208;SDS011;4639;48.862;9.188;2022-09-27T08:21:02;1.35;;;1.00;;
9208;SDS011;4639;48.862;9.188;2022-09-27T08:23:28;1.17;;;1.00;;
9208;SDS011;4639;48.862;9.188;2022-09-27T08:25:54;4.13;;;1.00;;
9208;SDS011;4639;48.862;9.188;2022-09-27T08:28:25;2.25;;;1.13;;
9208;SDS011;4639;48.862;9.188;2022-09-27T08:30:51;0.93;;;0.82;;
9208;SDS011;4639;48.862;9.188;2022-09-27T08:33:17;1.77;;;1.13;;
9208;SDS011;4639;48.862;9.188;2022-09-27T08:35:43;1.63;;;0.98;;
9208;SDS011;4639;48.862;9.188;2022-09-27T08:38:09;1.77;;;0.90;;
9208;SDS011;4639;48.862;9.188;2022-09-27T08:40:54;1.30;;;1.10;;
9208;SDS011;4639;48.862;9.188;2022-09-27T08:48:34;1.98;;;0.90;;
9208;SDS011;4639;48.862;9.188;2022-09-27T08:51:02;1.25;;;0.82;;
9208;SDS011;4639;48.862;9.188;2022-09-27T08:53:38;3.97;;;1.00;;
9208;SDS011;4639;48.862;9.188;2022-09-27T08:56:07;2.88;;;1.20;;
9208;SDS011;4639;48.862;9.188;2022-09-27T09:01:09;1.33;;;1.05;;
9208;SDS011;4639;48.862;9.188;2022-09-27T09:03:39;4.68;;;1.30;;
9208;SDS011;4639;48.862;9.188;2022-09-27T09:17:44;6.38;;;1.40;;
9208;SDS011;4639;48.862;9.188;2022-09-27T09:20:25;1.83;;;1.08;;
9208;SDS011;4639;48.862;9.188;2022-09-27T09:31:07;1.63;;;1.20;;
9208;SDS011;4639;48.862;9.188;2022-09-27T09:33:43;2.03;;;1.10;;
9208;SDS011;4639;48.862;9.188;2022-09-27T09:36:21;3.13;;;1.45;;
9208;SDS011;4639;48.862;9.188;2022-09-27T09:39:16;1.35;;;0.75;;
9208;SDS011;4639;48.862;9.188;2022-09-27T09:47:09;1.50;;;0.88;;
9208;SDS011;4639;48.862;9.188;2022-09-27T09:49:57;2.47;;;1.13;;
9208;SDS011;4639;48.862;9.188;2022-09-27T09:52:33;2.45;;;1.33;;
9208;SDS011;4639;48.862;9.188;2022-09-27T09:55:08;3.22;;;1.40;;
9208;SDS011;4639;48.862;9.188;2022-09-27T09:57:46;2.78;;;1.05;;
9208;SDS011;4639;48.862;9.188;2022-09-27T10:00:17;4.45;;;1.30;;
9208;SDS011;4639;48.862;9.188;2022-09-27T10:02:44;3.85;;;1.52;;
9208;SDS011;4639;48.862;9.188;2022-09-27T10:05:15;3.92;;;1.30;;
9208;SDS011;4639;48.862;9.188;2022-09-27T10:07:43;2.45;;;1.40;;
9208;SDS011;4639;48.862;9.188;2022-09-27T10:10:14;4.57;;;1.58;;
9208;SDS011;4639;48.862;9.188;2022-09-27T10:12:42;2.08;;;1.10;;
9208;SDS011;4639;48.862;9.188;2022-09-27T10:15:21;1.92;;;1.20;;
9208;SDS011;4639;48.862;9.188;2022-09-27T10:17:49;3.15;;;1.35;;
9208;SDS011;4639;48.862;9.188;2022-09-27T10:20:25;3.20;;;1.27;;
9208;SDS011;4639;48.862;9.188;2022-09-27T10:23:13;2.92;;;1.38;;
9208;SDS011;4639;48.862;9.188;2022-09-27T10:25:48;4.93;;;1.42;;
9208;SDS011;4639;48.862;9.188;2022-09-27T10:28:32;2.63;;;1.00;;
9208;SDS011;4639;48.862;9.188;2022-09-27T10:31:17;3.20;;;1.15;;
9208;SDS011;4639;48.862;9.188;2022-09-27T10:34:01;3.97;;;1.60;;
9208;SDS011;4639;48.862;9.188;2022-09-27T10:36:32;2.65;;;1.35;;
9208;SDS011;4639;48.862;9.188;2022-09-27T10:39:00;3.22;;;1.25;;
9208;SDS011;4639;48.862;9.188;2022-09-27T10:41:41;3.90;;;1.40;;
9208;SDS011;4639;48.862;9.188;2022-09-27T10:46:45;3.13;;;1.60;;
9208;SDS011;4639;48.862;9.188;2022-09-27T10:51:59;5.50;;;1.48;;
9208;SDS011;4639;48.862;9.188;2022-09-27T10:54:32;2.40;;;1.20;;
9208;SDS011;4639;48.862;9.188;2022-09-27T10:59:34;3.17;;;1.00;;
9208;SDS011;4639;48.862;9.188;2022-09-27T11:02:03;2.33;;;1.23;;
9208;SDS011;4639;48.862;9.188;2022-09-27T11:04:41;1.90;;;1.20;;
9208;SDS011;4639;48.862;9.188;2022-09-27T11:07:25;2.90;;;1.10;;
9208;SDS011;4639;48.862;9.188;2022-09-27T11:09:52;2.05;;;1.10;;
9208;SDS011;4639;48.862;9.188;2022-09-27T11:12:19;3.92;;;1.35;;
9208;SDS011;4639;48.862;9.188;2022-09-27T11:14:54;2.30;;;1.40;;
9208;SDS011;4639;48.862;9.188;2022-09-27T11:20:07;3.30;;;1.23;;
9208;SDS011;4639;48.862;9.188;2022-09-27T11:34:26;4.05;;;1.15;;
9208;SDS011;4639;48.862;9.188;2022-09-27T11:37:02;1.40;;;0.88;;
9208;SDS011;4639;48.862;9.188;2022-09-27T11:39:41;3.00;;;1.10;;
9208;SDS011;4639;48.862;9.188;2022-09-27T11:42:41;1.60;;;0.90;;
9208;SDS011;4639;48.862;9.188;2022-09-27T11:53:41;4.45;;;2.22;;
9208;SDS011;4639;48.862;9.188;2022-09-27T11:56:35;3.00;;;1.40;;
9208;SDS011;4639;48.862;9.188;2022-09-27T11:59:30;6.60;;;1.67;;
9208;SDS011;4639;48.862;9.188;2022-09-27T12:11:24;1.35;;;0.80;;
9208;SDS011;4639;48.862;9.188;2022-09-27T12:14:00;2.75;;;0.98;;
9208;SDS011;4639;48.862;9.188;2022-09-27T12:16:35;2.63;;;0.90;;
9208;SDS011;4639;48.862;9.188;2022-09-27T12:19:04;1.83;;;0.93;;
9208;SDS011;4639;48.862;9.188;2022-09-27T12:22:06;1.50;;;0.93;;
9208;SDS011;4639;48.862;9.188;2022-09-27T12:24:38;1.35;;;0.80;;
9208;SDS011;4639;48.862;9.188;2022-09-27T12:27:09;1.10;;;0.80;;
9208;SDS011;4639;48.862;9.188;2022-09-27T12:29:51;1.80;;;0.80;;
9208;SDS011;4639;48.862;9.188;2022-09-27T12:32:24;1.80;;;1.08;;
9208;SDS011;4639;48.862;9.188;2022-09-27T12:35:02;1.23;;;0.90;;
9208;SDS011;4639;48.862;9.188;2022-09-27T12:38:11;0.70;;;0.70;;
9208;SDS011;4639;48.862;9.188;2022-09-27T12:40:45;0.70;;;0.70;;
9208;SDS011;4639;48.862;9.188;2022-09-27T12:43:16;1.08;;;0.73;;
9208;SDS011;4639;48.862;9.188;2022-09-27T12:51:13;1.48;;;0.60;;
9208;SDS011;4639;48.862;9.188;2022-09-27T13:08:02;0.95;;;0.85;;
9208;SDS011;4639;48.862;9.188;2022-09-27T13:13:22;1.63;;;1.10;;
9208;SDS011;4639;48.862;9.188;2022-09-27T13:15:52;2.25;;;1.10;;
9208;SDS011;4639;48.862;9.188;2022-09-27T13:18:49;1.92;;;1.40;;
9208;SDS011;4639;48.862;9.188;2022-09-27T13:27:02;1.42;;;1.00;;
9208;SDS011;4639;48.862;9.188;2022-09-27T13:29:46;2.00;;;1.15;;
9208;SDS011;4639;48.862;9.188;2022-09-27T13:32:18;1.55;;;1.10;;
9208;SDS011;4639;48.862;9.188;2022-09-27T13:34:47;6.63;;;1.65;;
9208;SDS011;4639;48.862;9.188;2022-09-27T13:37:27;1.10;;;1.00;;
9208;SDS011;4639;48.862;9.188;2022-09-27T13:40:10;2.65;;;1.13;;
9208;SDS011;4639;48.862;9.188;2022-09-27T13:42:54;0.98;;;0.88;;
9208;SDS011;4639;48.862;9.188;2022-09-27T13:45:49;2.28;;;1.08;;
9208;SDS011;4639;48.862;9.188;2022-09-27T13:54:02;1.30;;;0.90;;
9208;SDS011;4639;48.862;9.188;2022-09-27T13:59:02;1.38;;;1.00;;
9208;SDS011;4639;48.862;9.188;2022-09-27T14:01:45;0.90;;;0.90;;
9208;SDS011;4639;48.862;9.188;2022-09-27T14:04:18;1.90;;;1.17;;
9208;SDS011;4639;48.862;9.188;2022-09-27T14:06:50;1.50;;;0.95;;
9208;SDS011;4639;48.862;9.188;2022-09-27T14:09:26;2.30;;;1.00;;
9208;SDS011;4639;48.862;9.188;2022-09-27T14:11:57;1.45;;;0.95;;
9208;SDS011;4639;48.862;9.188;2022-09-27T14:14:25;1.92;;;1.00;;
9208;SDS011;4639;48.862;9.188;2022-09-27T14:16:54;2.47;;;1.10;;
9208;SDS011;4639;48.862;9.188;2022-09-27T14:19:22;2.42;;;1.48;;
9208;SDS011;4639;48.862;9.188;2022-09-27T14:21:50;2.20;;;1.60;;
9208;SDS011;4639;48.862;9.188;2022-09-27T14:26:46;2.53;;;1.60;;
9208;SDS011;4639;48.862;9.188;2022-09-27T14:29:17;2.17;;;1.60;;
9208;SDS011;4639;48.862;9.188;2022-09-27T14:31:46;1.50;;;1.10;;
9208;SDS011;4639;48.862;9.188;2022-09-27T14:34:27;2.55;;;1.20;;
9208;SDS011;4639;48.862;9.188;2022-09-27T14:36:52;2.22;;;1.23;;
9208;SDS011;4639;48.862;9.188;2022-09-27T14:39:37;2.10;;;1.38;;
9208;SDS011;4639;48.862;9.188;2022-09-27T14:42:04;1.80;;;1.20;;
9208;SDS011;4639;48.862;9.188;2022-09-27T14:44:42;1.52;;;1.13;;
9208;SDS011;4639;48.862;9.188;2022-09-27T14:47:18;1.33;;;1.05;;
9208;SDS011;4639;48.862;9.188;2022-09-27T14:50:12;5.00;;;1.23;;
9208;SDS011;4639;48.862;9.188;2022-09-27T14:52:42;2.35;;;1.20;;
9208;SDS011;4639;48.862;9.188;2022-09-27T14:55:18;1.40;;;1.13;;
9208;SDS011;4639;48.862;9.188;2022-09-27T14:57:50;1.88;;;1.33;;
9208;SDS011;4639;48.862;9.188;2022-09-27T15:00:21;5.78;;;1.27;;
9208;SDS011;4639;48.862;9.188;2022-09-27T15:02:50;3.22;;;0.98;;
9208;SDS011;4639;48.862;9.188;2022-09-27T15:05:20;1.55;;;1.30;;
9208;SDS011;4639;48.862;9.188;2022-09-27T15:07:48;2.83;;;1.58;;
9208;SDS011;4639;48.862;9.188;2022-09-27T15:10:15;1.73;;;1.10;;
9208;SDS011;4639;48.862;9.188;2022-09-27T15:12:43;1.10;;;1.00;;
9208;SDS011;4639;48.862;9.188;2022-09-27T15:15:13;1.10;;;1.00;;
9208;SDS011;4639;48.862;9.188;2022-09-27T15:17:43;2.22;;;1.15;;
9208;SDS011;4639;48.862;9.188;2022-09-27T15:20:23;2.42;;;0.90;;
9208;SDS011;4639;48.862;9.188;2022-09-27T15:22:55;4.05;;;0.95;;
9208;SDS011;4639;48.862;9.188;2022-09-27T15:25:35;0.90;;;0.90;;
9208;SDS011;4639;48.862;9.188;2022-09-27T15:28:16;1.33;;;0.70;;
9208;SDS011;4639;48.862;9.188;2022-09-27T15:30:56;0.90;;;0.70;;
9208;SDS011;4639;48.862;9.188;2022-09-27T15:33:23;1.35;;;0.70;;
9208;SDS011;4639;48.862;9.188;2022-09-27T15:35:52;0.80;;;0.80;;
9208;SDS011;4639;48.862;9.188;2022-09-27T15:40:57;1.17;;;0.60;;
9208;SDS011;4639;48.862;9.188;2022-09-27T15:43:35;1.20;;;0.60;;
9208;SDS011;4639;48.862;9.188;2022-09-27T15:46:25;2.33;;;0.77;;
9208;SDS011;4639;48.862;9.188;2022-09-27T15:51:58;0.85;;;0.80;;
9208;SDS011;4639;48.862;9.188;2022-09-27T15:54:28;8.23;;;0.90;;
9208;SDS011;4639;48.862;9.188;2022-09-27T15:56:59;2.58;;;0.95;;
9208;SDS011;4639;48.862;9.188;2022-09-27T15:59:29;1.02;;;0.90;;
9208;SDS011;4639;48.862;9.188;2022-09-27T16:01:57;3.10;;;1.10;;
9208;SDS011;4639;48.862;9.188;2022-09-27T16:04:39;1.25;;;0.93;;
9208;SDS011;4639;48.862;9.188;2022-09-27T16:07:05;1.73;;;1.15;;
9208;SDS011;4639;48.862;9.188;2022-09-27T16:09:33;2.15;;;1.10;;
9208;SDS011;4639;48.862;9.188;2022-09-27T16:11:58;1.77;;;1.17;;
9208;SDS011;4639;48.862;9.188;2022-09-27T16:14:24;3.67;;;1.10;;
9208;SDS011;4639;48.862;9.188;2022-09-27T16:16:53;1.10;;;1.00;;
9208;SDS011;4639;48.862;9.188;2022-09-27T16:19:20;1.65;;;0.95;;
9208;SDS011;4639;48.862;9.188;2022-09-27T16:21:46;3.03;;;1.10;;
9208;SDS011;4639;48.862;9.188;2022-09-27T16:24:12;1.52;;;0.93;;
9208;SDS011;4639;48.862;9.188;2022-09-27T16:26:38;1.50;;;0.90;;
9208;SDS011;4639;48.862;9.188;2022-09-27T16:29:07;3.10;;;0.88;;
9208;SDS011;4639;48.862;9.188;2022-09-27T16:31:35;3.58;;;1.38;;
9208;SDS011;4639;48.862;9.188;2022-09-27T16:34:01;1.90;;;1.00;;
9208;SDS011;4639;48.862;9.188;2022-09-27T16:36:26;1.77;;;0.90;;
9208;SDS011;4639;48.862;9.188;2022-09-27T16:38:52;1.42;;;1.10;;
9208;SDS011;4639;48.862;9.188;2022-09-27T16:41:19;1.13;;;0.98;;
9208;SDS011;4639;48.862;9.188;2022-09-27T16:43:46;2.63;;;1.10;;
9208;SDS011;4639;48.862;9.188;2022-09-27T16:46:12;2.33;;;1.10;;
9208;SDS011;4639;48.862;9.188;2022-09-27T16:48:40;1.55;;;0.90;;
9208;SDS011;4639;48.862;9.188;2022-09-27T16:51:09;1.88;;;0.90;;
9208;SDS011;4639;48.862;9.188;2022-09-27T16:53:57;2.22;;;1.10;;
9208;SDS011;4639;48.862;9.188;2022-09-27T16:56:22;4.53;;;1.45;;
9208;SDS011;4639;48.862;9.188;2022-09-27T16:58:48;4.25;;;1.20;;
9208;SDS011;4639;48.862;9.188;2022-09-27T17:01:14;4.07;;;1.38;;
9208;SDS011;4639;48.862;9.188;2022-09-27T17:03:43;2.00;;;1.30;;
9208;SDS011;4639;48.862;9.188;2022-09-27T17:06:13;3.70;;;1.80;;
9208;SDS011;4639;48.862;9.188;2022-09-27T17:08:39;5.10;;;1.92;;
9208;SDS011;4639;48.862;9.188;2022-09-27T17:11:04;4.40;;;1.80;;
9208;SDS011;4639;48.862;9.188;2022-09-27T17:13:30;2.85;;;1.50;;
9208;SDS011;4639;48.862;9.188;2022-09-27T17:15:56;2.67;;;1.30;;
9208;SDS011;4639;48.862;9.188;2022-09-27T17:18:21;1.50;;;1.08;;
9208;SDS011;4639;48.862;9.188;2022-09-27T17:20:47;1.38;;;1.10;;
9208;SDS011;4639;48.862;9.188;2022-09-27T17:23:12;2.42;;;1.40;;
9208;SDS011;4639;48.862;9.188;2022-09-27T17:25:38;1.92;;;1.20;;
9208;SDS011;4639;48.862;9.188;2022-09-27T17:28:04;1.42;;;0.88;;
9208;SDS011;4639;48.862;9.188;2022-09-27T17:30:30;2.28;;;1.00;;
9208;SDS011;4639;48.862;9.188;2022-09-27T17:32:55;2.65;;;1.40;;
9208;SDS011;4639;48.862;9.188;2022-09-27T17:35:22;4.07;;;1.55;;
9208;SDS011;4639;48.862;9.188;2022-09-27T17:37:47;2.65;;;1.27;;
9208;SDS011;4639;48.862;9.188;2022-09-27T17:40:14;2.25;;;1.35;;
9208;SDS011;4639;48.862;9.188;2022-09-27T17:42:41;2.47;;;1.33;;
9208;SDS011;4639;48.862;9.188;2022-09-27T17:45:07;3.30;;;1.30;;
9208;SDS011;4639;48.862;9.188;2022-09-27T17:47:33;4.07;;;1.50;;
9208;SDS011;4639;48.862;9.188;2022-09-27T17:50:17;3.08;;;1.50;;
9208;SDS011;4639;48.862;9.188;2022-09-27T17:52:48;3.03;;;1.42;;
9208;SDS011;4639;48.862;9.188;2022-09-27T17:55:14;2.28;;;1.40;;
9208;SDS011;4639;48.862;9.188;2022-09-27T17:57:40;2.58;;;1.10;;
9208;SDS011;4639;48.862;9.188;2022-09-27T18:00:06;1.90;;;1.60;;
9208;SDS011;4639;48.862;9.188;2022-09-27T18:02:32;1.95;;;1.00;;
9208;SDS011;4639;48.862;9.188;2022-09-27T18:04:58;2.67;;;1.30;;
9208;SDS011;4639;48.862;9.188;2022-09-27T18:07:24;4.28;;;1.75;;
9208;SDS011;4639;48.862;9.188;2022-09-27T18:09:50;5.25;;;1.60;;
9208;SDS011;4639;48.862;9.188;2022-09-27T18:12:15;2.40;;;1.10;;
9208;SDS011;4639;48.862;9.188;2022-09-27T18:14:41;5.80;;;1.15;;
9208;SDS011;4639;48.862;9.188;2022-09-27T18:17:07;1.67;;;0.90;;
9208;SDS011;4639;48.862;9.188;2022-09-27T18:19:37;2.35;;;1.20;;